Time;durP1;ratioP1;P1;durP2;ratioP2;P2;SDS_P1;SDS_P2;PMS_P1;PMS_P2;Temp;Humidity;BMP_temperature;BMP_pressure;BME280_temperature;BME280_humidity;BME280_pressure;Samples;Min_cycle;Max_cycle;Signal;HPM_P1;HPM_P2
2022/04/08 00:00:35;;;;;;;5.35;0.98;;;;;;;11.44;66.07;98724.34;5072084;28;20028;-61
2022/04/08 00:03:00;;;;;;;3.53;1.40;;;;;;;11.46;66.41;98732.25;5071972;28;20031;-61
2022/04/08 00:05:25;;;;;;;4.45;1.40;;;;;;;11.49;65.55;98732.06;5072161;28;20033;-61
2022/04/08 00:07:51;;;;;;;6.68;1.60;;;;;;;11.53;65.57;98730.97;5072032;28;20101;-61
2022/04/08 00:10:18;;;;;;;4.57;1.33;;;;;;;11.52;63.69;98742.56;5070817;28;20085;-61
2022/04/08 00:12:44;;;;;;;8.40;1.10;;;;;;;11.49;64.83;98734.75;5071698;28;20502;-61
2022/04/08 00:15:10;;;;;;;1.88;0.90;;;;;;;11.54;65.55;98743.31;5072253;28;20032;-61
2022/04/08 00:17:35;;;;;;;2.65;1.13;;;;;;;11.50;64.69;98741.78;5084405;28;20020;-61
2022/04/08 00:20:01;;;;;;;3.10;1.35;;;;;;;11.44;65.88;98728.81;5091877;28;20059;-61
2022/04/08 00:22:27;;;;;;;4.30;1.40;;;;;;;11.55;65.15;98735.25;5091980;28;20447;-61
2022/04/08 00:24:53;;;;;;;3.45;1.42;;;;;;;11.55;65.54;98735.25;5092123;28;20020;-61
2022/04/08 00:27:18;;;;;;;3.25;1.08;;;;;;;11.51;66.91;98735.53;5084354;28;20076;-61
2022/04/08 00:29:43;;;;;;;2.58;1.70;;;;;;;11.48;67.40;98727.72;5071444;28;20127;-62
2022/04/08 00:32:09;;;;;;;5.72;1.33;;;;;;;11.45;67.59;98751.84;5071529;28;20024;-61
2022/04/08 00:34:35;;;;;;;2.15;1.00;;;;;;;11.44;67.19;98752.78;5065208;28;20409;-61
2022/04/08 00:37:00;;;;;;;3.78;1.00;;;;;;;11.46;67.41;98758.88;5051517;28;20029;-61
2022/04/08 00:39:25;;;;;;;4.70;1.08;;;;;;;11.46;67.28;98761.53;5053749;28;20051;-61
2022/04/08 00:41:51;;;;;;;0.95;0.75;;;;;;;11.41;66.78;98742.31;5063253;28;20036;-61
2022/04/08 00:44:17;;;;;;;1.83;1.10;;;;;;;11.49;66.27;98764.03;5071323;28;20663;-61
2022/04/08 00:46:43;;;;;;;2.05;1.15;;;;;;;11.51;65.90;98770.13;5071021;28;20095;-61
2022/04/08 00:49:09;;;;;;;3.20;1.00;;;;;;;11.49;65.98;98772.03;5069689;28;20052;-61
2022/04/08 00:51:34;;;;;;;4.07;1.23;;;;;;;11.46;66.49;98772.19;5051522;28;20112;-61
2022/04/08 00:54:01;;;;;;;2.63;1.02;;;;;;;11.42;65.24;98775.97;5053585;28;20082;-61
2022/04/08 00:56:30;;;;;;;3.47;1.50;;;;;;;11.43;66.21;98777.69;5051102;28;20035;-61
2022/04/08 00:58:57;;;;;;;3.70;1.00;;;;;;;11.40;65.27;98783.19;5070471;28;20403;-61
2022/04/08 01:01:24;;;;;;;2.22;0.90;;;;;;;11.41;65.45;98774.25;5071124;28;20081;-61
2022/04/08 01:03:52;;;;;;;5.15;1.95;;;;;;;11.44;66.01;98787.38;5070417;28;20032;-61
2022/04/08 01:06:21;;;;;;;5.63;1.00;;;;;;;11.42;67.55;98781.28;5069831;28;20050;-61
2022/04/08 01:08:51;;;;;;;4.63;1.60;;;;;;;11.48;67.40;98792.44;5070343;28;20038;-61
2022/04/08 01:11:17;;;;;;;4.18;0.95;;;;;;;11.45;67.10;98794.44;5070750;28;20506;-62
2022/04/08 01:13:42;;;;;;;4.20;0.82;;;;;;;11.43;67.20;98799.00;5070782;28;20107;-62
2022/04/08 01:16:09;;;;;;;4.75;1.20;;;;;;;11.37;67.21;98794.00;5070662;28;20016;-62
2022/04/08 01:18:35;;;;;;;3.17;1.40;;;;;;;11.36;68.44;98793.16;5090735;28;20548;-62
2022/04/08 01:21:05;;;;;;;5.43;1.20;;;;;;;11.38;66.29;98811.69;5090889;28;20101;-62
2022/04/08 01:23:34;;;;;;;2.85;0.98;;;;;;;11.40;65.20;98801.84;5071306;28;20048;-62
2022/04/08 01:26:20;;;;;;;5.45;1.30;;;;;;;11.45;64.05;98799.78;5050478;28;20025;-62
2022/04/08 01:28:46;;;;;;;5.82;1.92;;;;;;;11.51;64.22;98810.94;5056763;28;20072;-62
2022/04/08 01:31:11;;;;;;;2.33;0.88;;;;;;;11.48;63.53;98812.91;5049396;28;20388;-62
2022/04/08 01:33:37;;;;;;;4.85;1.15;;;;;;;11.46;63.46;98820.13;5050614;28;20029;-62
2022/04/08 01:36:02;;;;;;;6.22;1.13;;;;;;;11.48;62.92;98835.06;5050541;28;20025;-62
2022/04/08 01:38:28;;;;;;;5.38;1.08;;;;;;;11.43;63.35;98820.28;5050607;28;20052;-62
2022/04/08 01:40:53;;;;;;;1.70;0.80;;;;;;;11.43;62.67;98828.28;5054636;28;20028;-62
2022/04/08 01:43:18;;;;;;;5.97;1.13;;;;;;;11.36;63.17;98824.22;5070415;28;20079;-62
2022/04/08 01:45:44;;;;;;;3.75;1.13;;;;;;;11.33;63.96;98824.41;5070418;28;20033;-62
2022/04/08 01:48:10;;;;;;;5.05;1.17;;;;;;;11.33;63.88;98827.06;5070345;28;20024;-62
2022/04/08 01:50:35;;;;;;;3.85;1.13;;;;;;;11.27;63.34;98830.91;5070584;28;20020;-62
2022/04/08 01:53:01;;;;;;;2.85;1.00;;;;;;;11.23;63.25;98828.50;5069796;28;20580;-62
2022/04/08 01:55:26;;;;;;;5.82;0.90;;;;;;;11.18;63.49;98831.41;5068926;28;20024;-62
2022/04/08 01:57:51;;;;;;;2.25;1.05;;;;;;;11.17;63.06;98834.16;5069751;28;20115;-62
2022/04/08 02:00:17;;;;;;;2.17;1.15;;;;;;;11.15;62.38;98828.91;5070308;28;20055;-62
2022/04/08 02:02:42;;;;;;;2.78;0.73;;;;;;;11.13;62.66;98830.81;5070304;28;20033;-62
2022/04/08 02:05:08;;;;;;;4.47;1.77;;;;;;;11.01;62.80;98828.78;5070398;28;20031;-62
2022/04/08 02:07:34;;;;;;;2.80;1.30;;;;;;;10.94;62.06;98839.84;5074448;28;20166;-62
2022/04/08 02:09:59;;;;;;;2.83;0.90;;;;;;;10.78;62.02;98830.94;5074249;28;20472;-62
2022/04/08 02:12:25;;;;;;;1.58;0.80;;;;;;;10.85;61.05;98837.66;5074402;28;20506;-62
2022/04/08 02:14:50;;;;;;;5.47;1.60;;;;;;;10.84;61.15;98835.94;5073957;28;20033;-62
2022/04/08 02:17:17;;;;;;;4.75;0.93;;;;;;;10.76;60.96;98830.19;5084011;28;20034;-62
2022/04/08 02:19:42;;;;;;;6.22;1.10;;;;;;;10.71;61.51;98834.88;5094113;28;20044;-62
2022/04/08 02:22:08;;;;;;;3.90;1.05;;;;;;;10.61;61.16;98840.66;5094200;28;20447;-62
2022/04/08 02:24:34;;;;;;;1.45;0.85;;;;;;;10.59;61.08;98850.50;5093101;28;20042;-62
2022/04/08 02:27:00;;;;;;;3.92;1.30;;;;;;;10.63;61.13;98849.41;5090826;28;20595;-62
2022/04/08 02:29:26;;;;;;;1.02;0.73;;;;;;;10.65;59.73;98873.28;5073978;28;20119;-62
2022/04/08 02:31:54;;;;;;;2.60;0.90;;;;;;;10.69;59.88;98858.88;5074075;28;20021;-62
2022/04/08 02:34:19;;;;;;;3.20;0.88;;;;;;;10.68;60.45;98856.28;5073515;28;20387;-62
2022/04/08 02:36:45;;;;;;;1.85;0.77;;;;;;;10.66;59.43;98863.50;5074078;28;20025;-62
2022/04/08 02:39:10;;;;;;;1.30;0.90;;;;;;;10.71;59.72;98856.97;5073678;28;20024;-62
2022/04/08 02:41:36;;;;;;;1.73;0.88;;;;;;;10.71;59.66;98869.44;5073779;28;20025;-62
2022/04/08 02:44:01;;;;;;;1.02;0.75;;;;;;;10.68;60.72;98867.78;5071826;28;20033;-62
2022/04/08 02:46:27;;;;;;;4.68;0.98;;;;;;;10.63;60.34;98865.38;5055667;28;20033;-62
2022/04/08 02:48:52;;;;;;;4.25;1.02;;;;;;;10.67;60.55;98865.22;5055983;28;20488;-62
2022/04/08 02:51:18;;;;;;;1.42;0.93;;;;;;;10.69;59.78;98869.53;5052627;28;20029;-62
2022/04/08 02:53:43;;;;;;;3.47;0.88;;;;;;;10.69;60.32;98861.53;5051016;28;20472;-62
2022/04/08 02:56:08;;;;;;;2.95;1.10;;;;;;;10.66;60.57;98863.50;5053999;28;20187;-62
2022/04/08 02:58:35;;;;;;;1.92;0.95;;;;;;;10.68;60.45;98861.59;5071055;28;20051;-62
2022/04/08 03:01:00;;;;;;;2.15;0.90;;;;;;;10.69;61.01;98858.03;5073421;28;20571;-62
2022/04/08 03:03:27;;;;;;;2.63;1.00;;;;;;;10.70;61.80;98862.38;5072808;28;20150;-62
2022/04/08 03:05:53;;;;;;;5.22;1.20;;;;;;;10.72;61.78;98863.19;5072784;28;20032;-62
2022/04/08 03:08:19;;;;;;;3.05;0.98;;;;;;;10.78;63.00;98862.84;5073499;28;20444;-62
2022/04/08 03:10:45;;;;;;;5.53;1.08;;;;;;;10.73;63.60;98859.56;5073075;28;20025;-62
2022/04/08 03:13:11;;;;;;;4.45;1.40;;;;;;;10.66;63.28;98853.69;5073136;28;20025;-62
2022/04/08 03:15:36;;;;;;;2.80;1.05;;;;;;;10.66;62.47;98858.19;5073284;28;20446;-62
2022/04/08 03:18:02;;;;;;;4.13;1.20;;;;;;;10.64;63.55;98855.59;5087890;28;20020;-62
2022/04/08 03:20:27;;;;;;;4.05;0.90;;;;;;;10.54;64.76;98841.91;5083562;28;20411;-62
2022/04/08 03:22:52;;;;;;;6.75;1.00;;;;;;;10.58;64.21;98853.25;5072937;28;20464;-62
2022/04/08 03:25:19;;;;;;;1.63;0.95;;;;;;;10.57;63.35;98855.06;5072766;28;20048;-62
2022/04/08 03:27:44;;;;;;;1.08;0.90;;;;;;;10.62;63.52;98846.84;5072947;28;20027;-62
2022/04/08 03:30:10;;;;;;;0.70;0.70;;;;;;;10.62;64.44;98854.81;5072369;28;20466;-62
2022/04/08 03:32:36;;;;;;;4.82;1.05;;;;;;;10.58;64.62;98848.78;5071425;28;20496;-62
2022/04/08 03:35:02;;;;;;;3.25;1.27;;;;;;;10.59;64.51;98853.16;5055226;28;20060;-62
2022/04/08 03:37:29;;;;;;;2.80;0.98;;;;;;;10.58;65.86;98851.44;5052966;28;20071;-62
2022/04/08 03:39:54;;;;;;;2.90;0.88;;;;;;;10.60;65.45;98854.91;5052567;28;20032;-62
2022/04/08 03:42:20;;;;;;;3.67;1.08;;;;;;;10.53;65.48;98840.19;5068558;28;20025;-62
2022/04/08 03:44:46;;;;;;;8.80;2.30;;;;;;;10.60;64.56;98854.91;5072508;28;20102;-62
2022/04/08 03:47:11;;;;;;;5.90;1.30;;;;;;;10.63;65.37;98856.53;5072530;28;20491;-62
2022/04/08 03:49:37;;;;;;;5.18;0.90;;;;;;;10.63;65.65;98845.88;5072168;28;20090;-62
2022/04/08 03:52:06;;;;;;;3.80;0.85;;;;;;;10.60;65.25;98838.94;5072826;28;20051;-62
2022/04/08 03:54:31;;;;;;;5.45;1.27;;;;;;;10.60;64.13;98838.94;5072405;28;20028;-62
2022/04/08 03:56:57;;;;;;;4.18;1.17;;;;;;;10.70;66.20;98849.97;5072387;28;20050;-62
2022/04/08 03:59:24;;;;;;;3.40;1.05;;;;;;;10.69;65.57;98848.25;5072140;28;20047;-62
2022/04/08 04:01:50;;;;;;;1.70;1.00;;;;;;;10.73;65.49;98856.91;5072141;28;20032;-62
2022/04/08 04:04:15;;;;;;;2.88;1.00;;;;;;;10.68;66.33;98845.66;5072253;28;20032;-62
2022/04/08 04:06:41;;;;;;;3.10;0.90;;;;;;;10.67;66.87;98851.91;5072288;28;20111;-62
2022/04/08 04:09:07;;;;;;;3.55;1.17;;;;;;;10.67;68.24;98849.25;5072171;28;20028;-62
2022/04/08 04:11:33;;;;;;;3.75;1.08;;;;;;;10.63;68.13;98851.22;5072320;28;20036;-62
2022/04/08 04:13:59;;;;;;;3.03;1.25;;;;;;;10.59;69.27;98847.84;5072287;28;20030;-63
2022/04/08 04:16:26;;;;;;;5.35;1.45;;;;;;;10.59;70.19;98842.53;5073116;28;20051;-63
2022/04/08 04:18:51;;;;;;;2.80;1.13;;;;;;;10.64;66.09;98852.94;5091485;28;20024;-63
2022/04/08 04:21:17;;;;;;;3.63;1.42;;;;;;;10.66;65.51;98845.72;5091915;28;20164;-63
2022/04/08 04:23:42;;;;;;;5.75;1.42;;;;;;;10.57;66.02;98839.09;5084314;28;20032;-62
2022/04/08 04:26:10;;;;;;;3.95;1.27;;;;;;;10.52;66.97;98841.13;5062389;28;20487;-62
2022/04/08 04:28:36;;;;;;;3.20;1.23;;;;;;;10.37;67.31;98823.31;5059998;28;20059;-62
2022/04/08 04:31:04;;;;;;;5.15;1.50;;;;;;;10.43;68.51;98840.72;5062031;28;20028;-62
2022/04/08 04:33:30;;;;;;;3.95;1.20;;;;;;;10.43;69.02;98852.22;5060085;28;20024;-63
2022/04/08 04:35:56;;;;;;;2.35;1.10;;;;;;;10.43;69.24;98846.91;5061179;28;20025;-63
2022/04/08 04:38:22;;;;;;;5.97;1.35;;;;;;;10.42;69.18;98849.66;5060223;28;20016;-62
2022/04/08 04:40:48;;;;;;;7.10;1.40;;;;;;;10.42;69.53;98860.28;5062025;28;21373;-62
2022/04/08 04:43:13;;;;;;;4.28;1.48;;;;;;;10.41;69.94;98851.44;5061951;28;20025;-63
2022/04/08 04:45:39;;;;;;;6.10;1.17;;;;;;;10.36;69.76;98856.13;5059194;28;20037;-63
2022/04/08 04:48:06;;;;;;;5.85;1.30;;;;;;;10.34;70.61;98842.06;5061406;28;20095;-62
2022/04/08 04:50:31;;;;;;;13.98;1.65;;;;;;;10.41;70.30;98851.44;5062745;28;20021;-62
2022/04/08 04:52:57;;;;;;;14.20;1.90;;;;;;;10.43;70.92;98852.22;5056327;28;20034;-62
2022/04/08 04:55:22;;;;;;;1.60;0.90;;;;;;;10.45;70.27;98849.47;5061304;28;20486;-62
2022/04/08 04:57:48;;;;;;;6.32;1.23;;;;;;;10.44;69.67;98853.94;5061983;28;20100;-62
2022/04/08 05:00:16;;;;;;;8.05;1.90;;;;;;;10.44;68.82;98853.94;5058628;28;20452;-63
2022/04/08 05:02:42;;;;;;;2.30;1.58;;;;;;;10.48;68.17;98854.63;5060048;28;20476;-62
2022/04/08 05:05:08;;;;;;;16.48;2.33;;;;;;;10.47;67.17;98861.78;5062103;28;20108;-62
2022/04/08 05:07:33;;;;;;;11.05;1.70;;;;;;;10.47;67.64;98864.44;5060822;28;20027;-62
2022/04/08 05:09:59;;;;;;;10.93;1.65;;;;;;;10.51;67.73;98868.66;5066964;28;20210;-62
2022/04/08 05:12:24;;;;;;;2.00;1.10;;;;;;;10.49;67.45;98857.22;5070079;28;20017;-62
2022/04/08 05:14:49;;;;;;;4.50;1.27;;;;;;;10.54;68.39;98860.50;5070627;28;20502;-62
2022/04/08 05:17:15;;;;;;;3.33;1.40;;;;;;;10.46;68.17;98854.72;5061655;28;20064;-62
2022/04/08 05:19:40;;;;;;;3.35;1.30;;;;;;;10.49;68.77;98867.00;5063142;28;20557;-62
2022/04/08 05:22:06;;;;;;;4.97;1.30;;;;;;;10.43;65.29;98862.84;5070290;28;20028;-62
2022/04/08 05:24:31;;;;;;;1.95;1.13;;;;;;;10.43;67.77;98868.16;5067818;28;20032;-62
2022/04/08 05:26:56;;;;;;;3.97;1.23;;;;;;;10.41;69.59;98864.72;5070111;28;20055;-62
2022/04/08 05:29:22;;;;;;;3.30;1.10;;;;;;;10.37;66.93;98873.81;5070055;28;20541;-62
2022/04/08 05:31:50;;;;;;;2.70;0.90;;;;;;;10.29;67.48;98873.34;5068453;28;20024;-62
2022/04/08 05:34:15;;;;;;;2.78;0.90;;;;;;;10.27;66.00;98872.53;5051781;28;20067;-62
2022/04/08 05:36:41;;;;;;;2.65;0.93;;;;;;;10.28;66.61;98865.44;5050573;28;20679;-62
2022/04/08 05:39:06;;;;;;;3.70;1.00;;;;;;;10.23;69.89;98857.66;5050539;28;20025;-62
2022/04/08 05:41:32;;;;;;;35.38;23.38;;;;;;;10.11;69.19;98866.28;5063602;28;20369;-62
2022/04/08 05:43:57;;;;;;;5.35;4.22;;;;;;;10.00;69.13;98868.53;5060888;28;20032;-62
2022/04/08 05:46:22;;;;;;;3.97;1.45;;;;;;;9.95;70.18;98865.22;5051326;28;20036;-62
2022/04/08 05:48:48;;;;;;;2.10;0.90;;;;;;;9.84;70.75;98870.22;5051357;28;20075;-62
2022/04/08 05:51:13;;;;;;;2.90;1.10;;;;;;;9.76;74.24;98875.03;5051876;28;20480;-62
2022/04/08 05:53:39;;;;;;;1.85;1.23;;;;;;;9.72;75.04;98867.28;5051552;28;20021;-62
2022/04/08 05:56:04;;;;;;;5.28;1.33;;;;;;;9.73;77.75;98869.88;5064780;28;20032;-62
2022/04/08 05:58:31;;;;;;;0.90;0.90;;;;;;;9.70;78.14;98871.81;5063824;28;20056;-61
2022/04/08 06:00:56;;;;;;;2.92;1.13;;;;;;;9.63;78.20;98876.53;5047133;28;20490;-61
2022/04/08 06:03:22;;;;;;;3.97;1.20;;;;;;;9.54;77.42;98876.13;5049032;28;20025;-61
2022/04/08 06:05:47;;;;;;;2.70;1.00;;;;;;;9.64;78.42;98874.75;5048523;28;20032;-62
2022/04/08 06:08:12;;;;;;;4.40;1.17;;;;;;;9.61;79.47;98864.25;5048904;28;20032;-62
2022/04/08 06:10:38;;;;;;;3.40;1.60;;;;;;;9.56;80.82;98861.81;5059546;28;20067;-62
2022/04/08 06:13:04;;;;;;;2.75;1.40;;;;;;;9.54;80.55;98849.56;5055213;28;20024;-62
2022/04/08 06:15:31;;;;;;;1.38;1.27;;;;;;;9.49;80.49;98857.72;5068391;28;20032;-62
2022/04/08 06:17:57;;;;;;;3.05;1.00;;;;;;;9.52;80.74;98852.31;5068516;28;20157;-62
2022/04/08 06:20:24;;;;;;;1.20;0.98;;;;;;;9.61;81.32;98848.31;5080840;28;20059;-62
2022/04/08 06:22:50;;;;;;;1.02;0.93;;;;;;;9.63;81.96;98844.69;5088992;28;20027;-62
2022/04/08 06:25:20;;;;;;;1.45;0.98;;;;;;;9.62;81.92;98837.63;5073723;28;20067;-61
2022/04/08 06:27:57;;;;;;;5.00;1.10;;;;;;;9.68;82.66;98840.03;5077308;28;20047;-61
2022/04/08 06:30:23;;;;;;;1.30;1.10;;;;;;;9.65;83.63;98836.66;5087927;28;20483;-61
2022/04/08 06:32:48;;;;;;;1.77;1.67;;;;;;;9.69;84.54;98831.09;5087553;28;20016;-61
2022/04/08 06:35:14;;;;;;;7.50;1.80;;;;;;;9.61;84.43;98825.31;5087988;28;20027;-61
2022/04/08 06:37:39;;;;;;;4.22;1.73;;;;;;;9.53;85.88;98822.16;5088074;28;20024;-61
2022/04/08 06:40:10;;;;;;;3.10;1.60;;;;;;;9.51;86.68;98829.31;5078406;28;20024;-61
2022/04/08 06:42:36;;;;;;;2.70;1.90;;;;;;;9.46;87.94;98810.09;5088373;28;20109;-61
2022/04/08 06:45:04;;;;;;;2.92;2.00;;;;;;;9.37;90.88;98818.50;5085157;28;20195;-61
2022/04/08 06:47:29;;;;;;;3.17;1.77;;;;;;;9.31;92.23;98803.72;5088830;28;20031;-61
2022/04/08 06:49:55;;;;;;;2.78;1.50;;;;;;;9.33;92.89;98793.03;5072450;28;20484;-61
2022/04/08 06:52:20;;;;;;;3.97;1.65;;;;;;;9.38;94.19;98806.09;5069754;28;20024;-61
2022/04/08 06:54:46;;;;;;;3.05;1.40;;;;;;;9.44;95.07;98804.00;5075753;28;20512;-61
2022/04/08 06:57:12;;;;;;;5.05;2.50;;;;;;;9.34;95.29;98800.06;5082688;28;20059;-61
2022/04/08 06:59:39;;;;;;;8.25;3.13;;;;;;;9.30;96.35;98790.53;5084858;28;20090;-61
2022/04/08 07:02:05;;;;;;;8.45;4.40;;;;;;;9.25;97.50;98792.53;5073755;28;20030;-61
2022/04/08 07:04:30;;;;;;;11.30;4.80;;;;;;;9.25;98.58;98781.94;5072259;28;20028;-61
2022/04/08 07:06:56;;;;;;;10.57;4.40;;;;;;;9.32;99.49;98778.06;5089915;28;20086;-61
2022/04/08 07:09:22;;;;;;;5.68;4.05;;;;;;;9.37;99.61;98775.19;5092390;28;20576;-61
2022/04/08 07:11:47;;;;;;;4.43;2.30;;;;;;;9.18;99.55;98756.63;5093075;28;20036;-61
2022/04/08 07:14:13;;;;;;;5.53;2.80;;;;;;;9.31;100.00;98768.38;5093487;28;20069;-60
2022/04/08 07:16:41;;;;;;;3.83;2.20;;;;;;;9.36;100.00;98762.88;5093575;28;20463;-60
2022/04/08 07:19:07;;;;;;;2.78;1.70;;;;;;;9.35;100.00;98762.00;5093805;28;20059;-60
2022/04/08 07:21:32;;;;;;;3.50;1.63;;;;;;;9.32;100.00;98756.84;5094198;28;20024;-60
2022/04/08 07:23:58;;;;;;;6.22;2.17;;;;;;;9.33;100.00;98753.25;5092852;28;20110;-60
2022/04/08 07:26:23;;;;;;;3.63;2.13;;;;;;;9.31;100.00;98745.34;5072777;28;20107;-60
2022/04/08 07:28:49;;;;;;;4.95;2.05;;;;;;;9.30;100.00;98742.78;5072450;28;20077;-60
2022/04/08 07:31:14;;;;;;;3.50;1.88;;;;;;;9.33;100.00;98737.31;5073268;28;20032;-60
2022/04/08 07:33:39;;;;;;;2.95;1.73;;;;;;;9.45;100.00;98734.09;5073550;28;20028;-60
2022/04/08 07:36:05;;;;;;;3.30;1.80;;;;;;;9.37;100.00;98733.59;5073148;28;20100;-60
2022/04/08 07:38:31;;;;;;;7.13;2.45;;;;;;;9.45;100.00;98736.75;5057301;28;20025;-60
2022/04/08 07:41:00;;;;;;;4.25;1.80;;;;;;;9.40;100.00;98733.44;5053602;28;20037;-60
2022/04/08 07:43:25;;;;;;;2.55;1.45;;;;;;;9.45;100.00;98726.13;5053174;28;20032;-60
2022/04/08 07:45:51;;;;;;;4.45;1.98;;;;;;;9.25;100.00;98707.66;5072126;28;20021;-60
2022/04/08 07:48:16;;;;;;;4.90;2.67;;;;;;;9.38;100.00;98714.06;5073422;28;20486;-60
2022/04/08 07:50:42;;;;;;;14.00;6.47;;;;;;;9.46;100.00;98711.91;5072025;28;20032;-60
2022/04/08 07:53:07;;;;;;;6.85;3.13;;;;;;;9.47;100.00;98703.03;5072673;28;20016;-60
2022/04/08 07:55:33;;;;;;;4.80;1.52;;;;;;;9.36;100.00;98694.72;5072108;28;20703;-60
2022/04/08 07:57:59;;;;;;;3.47;1.40;;;;;;;9.42;100.00;98697.09;5072274;28;20020;-60
2022/04/08 08:00:26;;;;;;;2.58;1.75;;;;;;;9.36;100.00;98689.41;5072750;28;20033;-59
2022/04/08 08:02:52;;;;;;;9.00;4.57;;;;;;;9.36;100.00;98686.75;5071495;28;20032;-59
2022/04/08 08:05:20;;;;;;;2.88;1.73;;;;;;;9.44;100.00;98681.91;5072775;28;20028;-59
2022/04/08 08:07:50;;;;;;;6.93;2.58;;;;;;;9.39;100.00;98668.00;5073193;28;20024;-60
2022/04/08 08:10:36;;;;;;;9.60;3.38;;;;;;;9.32;100.00;98671.94;5072883;28;20476;-60
2022/04/08 08:13:03;;;;;;;11.25;3.08;;;;;;;9.43;100.00;98674.03;5071767;28;20487;-59
2022/04/08 08:15:30;;;;;;;7.05;2.53;;;;;;;9.25;100.00;98657.22;5073073;28;20387;-59
2022/04/08 08:17:57;;;;;;;5.40;2.42;;;;;;;9.33;100.00;98657.72;5088451;28;20027;-59
2022/04/08 08:20:24;;;;;;;6.15;2.05;;;;;;;9.47;100.00;98660.56;5092597;28;20039;-59
2022/04/08 08:22:50;;;;;;;4.18;2.00;;;;;;;9.45;100.00;98648.28;5093047;28;20059;-59
2022/04/08 08:25:16;;;;;;;2.80;1.42;;;;;;;9.38;100.00;98655.69;5092145;28;20439;-59
2022/04/08 08:27:45;;;;;;;4.30;2.08;;;;;;;9.56;100.00;98649.47;5083255;28;20116;-59
2022/04/08 08:30:13;;;;;;;4.60;1.67;;;;;;;9.58;100.00;98647.59;5072703;28;20040;-61
2022/04/08 08:32:39;;;;;;;2.17;1.40;;;;;;;9.38;100.00;98645.09;5072514;28;20027;-59
2022/04/08 08:35:12;;;;;;;6.88;2.50;;;;;;;9.53;100.00;98633.72;5071546;28;20017;-59
2022/04/08 08:37:38;;;;;;;2.63;1.55;;;;;;;9.54;100.00;98645.19;5072565;28;20391;-59
2022/04/08 08:40:05;;;;;;;3.72;1.80;;;;;;;9.48;100.00;98633.06;5071420;28;20036;-59
2022/04/08 08:42:31;;;;;;;3.60;1.88;;;;;;;9.49;100.00;98616.19;5071288;28;20029;-59
2022/04/08 08:44:57;;;;;;;3.28;1.60;;;;;;;9.67;100.00;98604.66;5072250;28;20029;-59
2022/04/08 08:47:29;;;;;;;2.47;1.55;;;;;;;9.79;100.00;98604.03;5072550;28;20073;-59
2022/04/08 08:49:56;;;;;;;4.80;2.25;;;;;;;9.82;100.00;98598.56;5071655;28;20020;-59
2022/04/08 08:52:22;;;;;;;2.00;1.27;;;;;;;9.73;100.00;98591.06;5070653;28;20092;-59
2022/04/08 08:54:48;;;;;;;2.97;1.73;;;;;;;9.72;100.00;98586.69;5072026;28;20032;-59
2022/04/08 08:57:18;;;;;;;4.63;1.90;;;;;;;9.86;100.00;98578.88;5070201;28;20031;-59
2022/04/08 08:59:47;;;;;;;3.38;1.50;;;;;;;9.92;99.80;98578.53;5072172;28;20115;-59
2022/04/08 09:02:18;;;;;;;3.33;2.25;;;;;;;10.05;100.00;98563.66;5064490;28;20380;-59
2022/04/08 09:04:44;;;;;;;8.45;1.92;;;;;;;10.17;99.96;98573.69;5070623;28;20310;-60
2022/04/08 09:07:27;;;;;;;5.43;1.80;;;;;;;10.03;99.33;98533.66;5072162;28;20032;-59
2022/04/08 09:09:57;;;;;;;1.90;1.70;;;;;;;10.34;99.73;98555.03;5071796;28;20528;-59
2022/04/08 09:12:28;;;;;;;5.40;2.30;;;;;;;10.49;98.61;98548.84;5072513;28;20024;-59
2022/04/08 09:14:56;;;;;;;4.15;1.85;;;;;;;10.56;98.07;98544.03;5071535;28;20132;-59
2022/04/08 09:17:24;;;;;;;2.90;1.60;;;;;;;10.59;96.67;98541.25;5082161;28;20376;-59
2022/04/08 09:19:52;;;;;;;2.58;1.60;;;;;;;10.51;96.40;98517.72;5090237;28;20122;-59
2022/04/08 09:22:18;;;;;;;4.80;1.50;;;;;;;10.74;97.03;98510.25;5092019;28;20148;-59
2022/04/08 09:24:44;;;;;;;1.77;1.13;;;;;;;10.81;96.29;98516.94;5091878;28;20081;-59
2022/04/08 09:27:10;;;;;;;1.65;1.00;;;;;;;10.79;92.59;98505.53;5085425;28;20468;-59
2022/04/08 09:29:36;;;;;;;2.47;1.17;;;;;;;10.77;92.71;98494.13;5051532;28;20087;-59
2022/04/08 09:32:12;;;;;;;2.47;0.88;;;;;;;10.82;92.54;98490.25;5050430;28;20104;-59
2022/04/08 09:34:40;;;;;;;2.55;1.00;;;;;;;10.83;93.09;98478.66;5051400;28;20033;-59
2022/04/08 09:37:12;;;;;;;1.73;0.90;;;;;;;10.88;93.71;98471.28;5051701;28;20154;-59
2022/04/08 09:40:03;;;;;;;2.73;1.20;;;;;;;10.99;94.40;98458.19;5051758;28;20032;-59
2022/04/08 09:42:46;;;;;;;2.08;1.50;;;;;;;11.07;96.34;98455.09;5051720;28;20503;-59
2022/04/08 09:45:13;;;;;;;5.00;1.65;;;;;;;11.16;95.88;98450.06;5064328;28;20016;-59
2022/04/08 09:47:39;;;;;;;7.75;1.38;;;;;;;11.13;94.83;98449.41;5057982;28;20029;-60
2022/04/08 09:50:07;;;;;;;2.03;1.60;;;;;;;11.02;94.96;98441.22;5050995;28;20025;-60
2022/04/08 09:52:33;;;;;;;1.25;1.00;;;;;;;10.96;92.23;98463.69;5051601;28;20020;-60
2022/04/08 09:55:03;;;;;;;4.20;0.90;;;;;;;10.88;91.17;98465.09;5051258;28;20033;-60
2022/04/08 09:57:36;;;;;;;1.98;1.08;;;;;;;10.81;91.07;98459.28;5058452;28;20029;-60
2022/04/08 10:00:03;;;;;;;2.88;1.80;;;;;;;10.78;90.85;98458.59;5071341;28;20021;-60
2022/04/08 10:02:29;;;;;;;9.30;1.40;;;;;;;10.86;92.25;98451.88;5071576;28;20384;-60
2022/04/08 10:04:55;;;;;;;9.40;1.33;;;;;;;10.91;94.52;98457.78;5070760;28;20104;-60
2022/04/08 10:07:21;;;;;;;2.92;1.02;;;;;;;10.90;95.23;98440.13;5071405;28;20146;-60
2022/04/08 10:10:18;;;;;;;3.08;0.98;;;;;;;10.92;95.25;98450.69;5069894;28;20028;-59
2022/04/08 10:12:50;;;;;;;3.70;1.00;;;;;;;10.91;96.25;98438.31;5071402;28;20032;-59
2022/04/08 10:15:26;;;;;;;4.22;1.13;;;;;;;10.94;96.12;98432.84;5071202;28;20021;-59
2022/04/08 10:18:04;;;;;;;2.47;1.02;;;;;;;10.94;94.95;98438.97;5086141;28;20031;-59
2022/04/08 10:20:31;;;;;;;3.10;0.90;;;;;;;10.77;93.67;98427.63;5068743;28;20052;-59
2022/04/08 10:23:11;;;;;;;2.92;0.90;;;;;;;10.78;93.32;98426.69;5052701;28;20071;-59
2022/04/08 10:25:48;;;;;;;3.28;1.00;;;;;;;10.91;94.53;98406.38;5050626;28;20017;-59
2022/04/08 10:28:13;;;;;;;1.20;0.88;;;;;;;10.91;95.50;98403.72;5066834;28;20568;-59
2022/04/08 10:30:49;;;;;;;4.90;1.33;;;;;;;10.92;94.16;98389.50;5060031;28;20036;-60
2022/04/08 10:33:28;;;;;;;4.43;1.00;;;;;;;11.10;95.79;98383.06;5055105;28;20024;-60
2022/04/08 10:35:55;;;;;;;1.40;1.30;;;;;;;11.15;95.36;98373.00;5055023;28;20455;-60
2022/04/08 10:38:21;;;;;;;2.10;1.00;;;;;;;11.16;95.02;98358.72;5055376;28;20530;-60
2022/04/08 10:40:56;;;;;;;1.00;0.90;;;;;;;11.28;95.33;98350.00;5054718;28;20031;-60
2022/04/08 10:43:22;;;;;;;1.27;1.05;;;;;;;11.17;92.21;98344.50;5054527;28;20116;-60
2022/04/08 10:45:56;;;;;;;1.95;1.20;;;;;;;11.16;92.22;98342.78;5072423;28;20562;-60
2022/04/08 10:48:23;;;;;;;1.23;1.00;;;;;;;11.08;92.97;98340.59;5075066;28;20504;-60
2022/04/08 10:50:50;;;;;;;4.13;1.42;;;;;;;11.17;93.99;98348.00;5073524;28;20024;-60
2022/04/08 10:53:22;;;;;;;0.88;0.88;;;;;;;11.11;93.55;98323.56;5073231;28;20021;-60
2022/04/08 10:56:04;;;;;;;2.45;1.30;;;;;;;11.13;94.93;98337.63;5072328;28;20063;-60
2022/04/08 10:58:31;;;;;;;1.50;1.30;;;;;;;10.98;94.02;98338.56;5070720;28;20119;-60
2022/04/08 11:00:57;;;;;;;2.65;1.60;;;;;;;10.92;94.68;98317.69;5074690;28;20035;-60
2022/04/08 11:03:27;;;;;;;2.15;1.35;;;;;;;10.70;95.04;98306.63;5074925;28;20111;-60
2022/04/08 11:05:53;;;;;;;4.38;1.65;;;;;;;10.83;96.01;98315.56;5074459;28;20419;-60
2022/04/08 11:08:18;;;;;;;1.63;1.30;;;;;;;10.81;95.65;98320.97;5064745;28;20021;-60
2022/04/08 11:10:44;;;;;;;2.72;1.08;;;;;;;10.78;94.93;98312.31;5065111;28;20495;-60
2022/04/08 11:13:12;;;;;;;5.18;1.70;;;;;;;10.79;94.71;98306.06;5074025;28;20601;-60
2022/04/08 11:15:43;;;;;;;5.47;1.00;;;;;;;10.91;95.86;98289.34;5073670;28;20020;-60
2022/04/08 11:18:09;;;;;;;2.60;0.90;;;;;;;10.91;94.83;98260.09;5072777;28;20074;-60
2022/04/08 11:20:35;;;;;;;0.65;0.63;;;;;;;10.96;94.62;98260.66;5088253;28;20052;-60
2022/04/08 11:23:00;;;;;;;2.05;0.73;;;;;;;10.99;93.86;98273.78;5094048;28;20429;-60
2022/04/08 11:25:32;;;;;;;1.33;0.80;;;;;;;10.97;92.71;98270.38;5058313;28;20051;-60
2022/04/08 11:28:03;;;;;;;5.05;1.30;;;;;;;10.84;93.05;98272.06;5065306;28;20047;-60
2022/04/08 11:30:30;;;;;;;2.25;1.40;;;;;;;10.73;92.05;98279.84;5073778;28;20016;-60
2022/04/08 11:32:56;;;;;;;1.92;1.60;;;;;;;10.70;92.20;98253.44;5071312;28;20112;-60